Terminal Aerodrome Forecast
Issued by NWS

Home | Current Version | Previous Version | Text Only | Print | Product List | Glossary On
Versions: 1 2 3 4 5 6 7 8 9 10 11 12 13
000
FTUS42 TJSJ 280102 AAA
TAFJBQ
TAF AMD
TJBQ 280102Z 2801/2824 10015G25KT P6SM SCT025
     FM280330 11010KT P6SM FEW025 SCT040
     FM281430 08015G25KT P6SM FEW030 SCT050
     FM282330 11010KT P6SM FEW025
      AMD NOT SKED 2802/2811=

USA.gov is the U.S. government's official web portal to all federal, state and local government web resources and services.